Time;durP1;ratioP1;P1;durP2;ratioP2;P2;SDS_P1;SDS_P2;PMS_P1;PMS_P2;Temp;Humidity;BMP_temperature;BMP_pressure;BME280_temperature;BME280_humidity;BME280_pressure;Samples;Min_cycle;Max_cycle;Signal;HPM_P1;HPM_P2
2024/01/21 00:00:51;;;;;;;3.88;2.03;;;4.30;99.90;;;;;;5070041;28;20399;-64
2024/01/21 00:03:19;;;;;;;7.10;2.08;;;4.30;99.90;;;;;;5080072;28;20052;-66
2024/01/21 00:05:47;;;;;;;10.63;2.60;;;4.30;99.90;;;;;;5079706;28;20502;-63
2024/01/21 00:08:14;;;;;;;6.03;2.15;;;4.30;99.90;;;;;;5103721;28;20046;-61
2024/01/21 00:10:42;;;;;;;8.48;2.90;;;4.40;99.90;;;;;;5108720;28;20047;-66
2024/01/21 00:13:10;;;;;;;6.20;1.83;;;4.30;99.90;;;;;;5094383;28;20059;-62
2024/01/21 00:15:37;;;;;;;7.40;2.53;;;4.30;99.90;;;;;;5092540;28;20048;-62
2024/01/21 00:18:05;;;;;;;11.13;2.50;;;4.30;99.90;;;;;;5086641;28;20048;-62
2024/01/21 00:20:33;;;;;;;6.28;2.10;;;4.40;99.90;;;;;;5080283;28;20078;-61
2024/01/21 00:23:01;;;;;;;13.23;2.45;;;4.40;99.90;;;;;;5085435;28;20051;-62
2024/01/21 00:25:28;;;;;;;8.18;2.47;;;4.40;99.90;;;;;;5085906;28;20040;-63
2024/01/21 00:27:56;;;;;;;4.95;2.13;;;4.50;99.90;;;;;;5085913;28;20040;-64
2024/01/21 00:30:24;;;;;;;8.65;2.75;;;4.40;99.90;;;;;;5086416;28;20040;-61
2024/01/21 00:32:51;;;;;;;11.20;2.38;;;4.40;99.90;;;;;;5085503;28;20044;-63
2024/01/21 00:35:19;;;;;;;5.20;2.70;;;4.40;99.90;;;;;;5085900;28;20063;-63
2024/01/21 00:37:47;;;;;;;13.90;2.75;;;4.40;99.90;;;;;;5100584;28;20055;-61
2024/01/21 00:40:15;;;;;;;7.15;2.90;;;4.40;99.90;;;;;;5087638;28;20052;-64
2024/01/21 00:42:43;;;;;;;5.38;2.20;;;4.40;99.90;;;;;;5088021;28;20052;-69
2024/01/21 00:45:10;;;;;;;17.17;3.78;;;4.50;99.90;;;;;;5087139;28;20063;-69
2024/01/21 00:47:38;;;;;;;7.07;2.53;;;4.50;99.90;;;;;;5079711;28;20502;-69
2024/01/21 00:50:06;;;;;;;6.35;2.28;;;4.50;99.90;;;;;;5073921;28;20063;-69
2024/01/21 00:52:34;;;;;;;4.30;2.25;;;4.50;99.90;;;;;;5076883;28;20045;-69
2024/01/21 00:55:01;;;;;;;6.88;2.65;;;4.50;99.90;;;;;;5090474;28;20044;-68
2024/01/21 00:57:29;;;;;;;8.15;3.03;;;4.60;99.90;;;;;;5088050;28;20055;-68
2024/01/21 00:59:57;;;;;;;5.63;2.15;;;4.60;99.90;;;;;;5088038;28;20052;-70
2024/01/21 01:02:24;;;;;;;7.45;2.03;;;4.70;99.90;;;;;;5083910;28;20564;-70
2024/01/21 01:04:52;;;;;;;4.15;2.25;;;4.80;99.90;;;;;;5075047;28;20043;-66
2024/01/21 01:07:19;;;;;;;4.53;2.20;;;4.80;99.90;;;;;;5092804;28;20047;-68
2024/01/21 01:09:47;;;;;;;7.32;2.22;;;4.80;99.90;;;;;;5085333;28;20032;-61
2024/01/21 01:12:15;;;;;;;4.68;1.98;;;4.90;99.90;;;;;;5087015;28;20052;-62
2024/01/21 01:14:43;;;;;;;7.90;2.33;;;4.90;99.90;;;;;;5102439;28;20040;-66
2024/01/21 01:17:12;;;;;;;6.45;2.22;;;4.90;99.90;;;;;;5083040;28;20048;-61
2024/01/21 01:19:40;;;;;;;4.33;1.90;;;4.90;99.90;;;;;;5085567;28;20040;-66
2024/01/21 01:22:09;;;;;;;2.45;1.75;;;5.00;99.90;;;;;;5091879;28;20059;-65
2024/01/21 01:24:37;;;;;;;4.25;1.98;;;5.00;99.90;;;;;;5090459;28;20044;-67
2024/01/21 01:27:05;;;;;;;7.05;2.00;;;5.00;99.90;;;;;;5091736;28;20055;-64
2024/01/21 01:29:32;;;;;;;8.05;2.20;;;5.10;99.90;;;;;;5082802;28;20059;-63
2024/01/21 01:32:00;;;;;;;8.15;2.13;;;5.10;99.90;;;;;;5080347;28;20047;-63
2024/01/21 01:34:28;;;;;;;4.40;2.25;;;5.10;99.90;;;;;;5085604;28;20048;-68
2024/01/21 01:36:56;;;;;;;6.97;2.72;;;5.10;99.90;;;;;;5095871;28;20120;-63
2024/01/21 01:39:23;;;;;;;4.53;1.80;;;5.20;99.90;;;;;;5092122;28;20420;-65
2024/01/21 01:41:51;;;;;;;6.32;2.67;;;5.20;99.90;;;;;;5091541;28;20044;-69
2024/01/21 01:44:19;;;;;;;5.78;2.25;;;5.30;99.90;;;;;;5089349;28;20044;-66
2024/01/21 01:46:47;;;;;;;3.25;1.52;;;5.30;99.90;;;;;;5090580;28;20055;-63
2024/01/21 01:49:15;;;;;;;5.30;1.83;;;5.30;99.90;;;;;;5084847;28;20399;-69
2024/01/21 01:51:43;;;;;;;7.70;2.38;;;5.40;99.90;;;;;;5082321;28;20531;-69
2024/01/21 01:54:11;;;;;;;7.03;1.95;;;5.40;99.90;;;;;;5103907;28;20039;-69
2024/01/21 01:56:40;;;;;;;2.17;1.52;;;5.40;99.90;;;;;;5092718;28;20199;-65
2024/01/21 01:59:10;;;;;;;3.15;1.58;;;5.50;99.90;;;;;;5089753;28;20045;-68
2024/01/21 02:01:38;;;;;;;10.98;2.28;;;5.60;99.90;;;;;;5089215;28;20047;-65
2024/01/21 02:04:08;;;;;;;2.75;1.60;;;5.60;99.90;;;;;;5083375;28;20226;-66
2024/01/21 02:06:36;;;;;;;5.15;1.75;;;5.60;99.90;;;;;;5091615;28;20048;-64
2024/01/21 02:09:05;;;;;;;2.42;1.67;;;5.60;99.90;;;;;;5098920;28;20048;-66
2024/01/21 02:11:33;;;;;;;4.00;2.50;;;5.70;99.90;;;;;;5089558;28;20055;-66
2024/01/21 02:14:01;;;;;;;2.13;1.17;;;5.70;99.90;;;;;;5072402;28;20048;-61
2024/01/21 02:16:28;;;;;;;5.50;1.55;;;5.80;99.90;;;;;;5076758;28;20487;-64
2024/01/21 02:18:57;;;;;;;4.72;1.33;;;5.80;99.90;;;;;;5083622;28;20041;-65
2024/01/21 02:21:25;;;;;;;6.90;1.70;;;5.80;99.90;;;;;;5070448;28;20419;-68
2024/01/21 02:23:53;;;;;;;5.18;1.60;;;5.90;99.90;;;;;;5086303;28;20052;-69
2024/01/21 02:26:21;;;;;;;5.18;1.60;;;5.90;99.90;;;;;;5090648;28;20040;-61
2024/01/21 02:28:48;;;;;;;3.85;1.42;;;5.90;99.90;;;;;;5088480;28;20056;-62
2024/01/21 02:31:16;;;;;;;2.38;1.33;;;5.90;99.90;;;;;;5081142;28;20052;-62
2024/01/21 02:33:43;;;;;;;7.35;1.42;;;5.90;99.90;;;;;;5084926;28;20059;-63
2024/01/21 02:36:11;;;;;;;3.40;1.67;;;6.00;99.90;;;;;;5089845;28;20048;-61
2024/01/21 02:38:38;;;;;;;5.22;1.40;;;6.00;99.90;;;;;;5106119;28;20530;-63
2024/01/21 02:41:06;;;;;;;2.67;1.30;;;6.00;99.90;;;;;;5092795;28;20044;-64
2024/01/21 02:43:34;;;;;;;3.90;1.35;;;6.00;99.90;;;;;;5093360;28;20044;-61
2024/01/21 02:46:01;;;;;;;7.00;1.33;;;6.00;99.90;;;;;;5085393;28;20052;-61
2024/01/21 02:48:29;;;;;;;3.33;1.40;;;6.00;99.90;;;;;;5080355;28;20044;-61
2024/01/21 02:50:57;;;;;;;4.55;1.60;;;6.00;99.90;;;;;;5093558;28;20071;-61
2024/01/21 02:53:24;;;;;;;10.77;3.13;;;6.00;99.90;;;;;;5091502;28;20040;-62
2024/01/21 02:55:52;;;;;;;4.15;1.52;;;6.00;99.90;;;;;;5093024;28;20044;-65
2024/01/21 02:58:19;;;;;;;5.45;1.50;;;5.90;99.90;;;;;;5092239;28;20067;-63
2024/01/21 03:00:47;;;;;;;2.25;1.25;;;6.00;99.90;;;;;;5092258;28;20051;-60
2024/01/21 03:03:15;;;;;;;5.50;1.40;;;5.90;99.90;;;;;;5081522;28;20044;-61
2024/01/21 03:05:42;;;;;;;5.60;2.55;;;6.00;99.90;;;;;;5083428;28;20039;-63
2024/01/21 03:08:11;;;;;;;4.53;1.95;;;6.00;99.90;;;;;;5108043;28;20412;-61
2024/01/21 03:10:39;;;;;;;7.05;1.88;;;6.00;99.90;;;;;;5092332;28;20055;-62
2024/01/21 03:13:09;;;;;;;5.50;1.60;;;6.00;99.90;;;;;;5086307;28;20396;-67
2024/01/21 03:15:37;;;;;;;5.15;1.20;;;6.00;99.90;;;;;;5075310;28;20674;-66
2024/01/21 03:18:04;;;;;;;3.53;1.38;;;6.00;99.90;;;;;;5090578;28;20044;-69
2024/01/21 03:20:32;;;;;;;5.97;1.17;;;6.10;99.90;;;;;;5091321;28;20044;-63
2024/01/21 03:22:59;;;;;;;3.70;1.45;;;6.10;99.90;;;;;;5091995;28;20063;-65
2024/01/21 03:25:27;;;;;;;2.35;1.33;;;6.10;99.90;;;;;;5092659;28;20047;-65
2024/01/21 03:27:55;;;;;;;3.85;1.33;;;6.10;99.90;;;;;;5091937;28;20052;-61
2024/01/21 03:30:22;;;;;;;1.38;1.10;;;6.20;99.90;;;;;;5092824;28;20040;-62
2024/01/21 03:32:50;;;;;;;2.60;0.95;;;6.20;99.90;;;;;;5092599;28;20048;-60
2024/01/21 03:35:18;;;;;;;5.20;1.70;;;6.30;99.90;;;;;;5091363;28;20040;-60
2024/01/21 03:37:45;;;;;;;1.60;1.25;;;6.30;99.90;;;;;;5105160;28;20047;-61
2024/01/21 03:40:13;;;;;;;1.95;1.58;;;6.30;99.90;;;;;;5112592;28;20039;-61
2024/01/21 03:42:45;;;;;;;3.15;1.13;;;6.30;99.90;;;;;;5112945;28;20043;-63
2024/01/21 03:45:13;;;;;;;2.30;0.90;;;6.30;99.90;;;;;;5072074;28;20514;-63
2024/01/21 03:47:41;;;;;;;1.88;0.98;;;6.40;99.90;;;;;;5086194;28;20049;-62
2024/01/21 03:50:09;;;;;;;2.97;1.00;;;6.40;99.90;;;;;;5083918;28;20056;-61
2024/01/21 03:52:36;;;;;;;1.38;0.82;;;6.40;99.90;;;;;;5090525;28;20056;-61
2024/01/21 03:55:04;;;;;;;1.17;0.80;;;6.40;99.90;;;;;;5091176;28;20040;-62
2024/01/21 03:57:32;;;;;;;2.38;0.98;;;6.30;99.90;;;;;;5090777;28;20052;-62
2024/01/21 04:00:00;;;;;;;1.85;1.25;;;6.40;99.90;;;;;;5088816;28;20050;-63
2024/01/21 04:02:38;;;;;;;1.23;0.80;;;6.30;99.90;;;;;;5091605;28;20052;-60
2024/01/21 04:05:07;;;;;;;1.92;0.95;;;6.30;99.90;;;;;;5090153;28;20044;-62
2024/01/21 04:07:34;;;;;;;3.65;0.88;;;6.40;99.90;;;;;;5089260;28;20048;-61
2024/01/21 04:10:03;;;;;;;3.38;0.95;;;6.40;99.90;;;;;;5071359;28;20049;-61
2024/01/21 04:12:30;;;;;;;1.75;0.90;;;6.40;99.90;;;;;;5087438;28;20040;-62
2024/01/21 04:14:58;;;;;;;2.50;0.80;;;6.50;99.90;;;;;;5092117;28;20040;-60
2024/01/21 04:17:27;;;;;;;1.70;0.80;;;6.50;99.90;;;;;;5090932;28;20048;-65
2024/01/21 04:19:54;;;;;;;1.23;0.85;;;6.50;99.90;;;;;;5091593;28;20055;-63
2024/01/21 04:22:22;;;;;;;3.05;0.95;;;6.50;99.90;;;;;;5080560;28;20044;-65
2024/01/21 04:24:49;;;;;;;4.95;0.90;;;6.50;99.90;;;;;;5090916;28;20047;-64
2024/01/21 04:27:18;;;;;;;1.70;1.05;;;6.50;99.90;;;;;;5091721;28;20048;-62
2024/01/21 04:29:46;;;;;;;2.45;0.85;;;6.60;99.90;;;;;;5089570;28;20415;-63
2024/01/21 04:32:13;;;;;;;3.15;1.40;;;6.60;99.90;;;;;;5090602;28;20059;-63
2024/01/21 04:34:41;;;;;;;3.20;0.82;;;6.60;99.90;;;;;;5091580;28;20051;-62
2024/01/21 04:37:09;;;;;;;1.50;0.90;;;6.60;99.90;;;;;;5098238;28;20039;-62
2024/01/21 04:39:36;;;;;;;3.28;1.10;;;6.60;99.90;;;;;;5093113;28;20403;-62
2024/01/21 04:42:04;;;;;;;1.40;1.30;;;6.60;99.90;;;;;;5090698;28;20617;-65
2024/01/21 04:44:32;;;;;;;4.63;0.90;;;6.70;99.90;;;;;;5091628;28;20044;-62
2024/01/21 04:46:59;;;;;;;2.50;0.93;;;6.60;99.90;;;;;;5089539;28;20040;-67
2024/01/21 04:49:27;;;;;;;1.90;0.82;;;6.70;99.90;;;;;;5083202;28;20538;-64
2024/01/21 04:51:55;;;;;;;4.05;1.40;;;6.70;99.90;;;;;;5074023;28;20043;-62
2024/01/21 04:54:22;;;;;;;2.60;1.02;;;6.70;99.90;;;;;;5093458;28;20043;-70
2024/01/21 04:56:50;;;;;;;4.38;0.98;;;6.70;99.90;;;;;;5094116;28;20052;-66
2024/01/21 04:59:17;;;;;;;3.75;1.10;;;6.70;99.90;;;;;;5094709;28;20071;-65
2024/01/21 05:01:49;;;;;;;1.05;0.73;;;6.70;99.90;;;;;;5095494;28;20044;-63
2024/01/21 05:04:16;;;;;;;0.85;0.77;;;6.60;99.90;;;;;;5093060;28;20055;-62
2024/01/21 05:06:44;;;;;;;0.95;0.85;;;6.60;99.90;;;;;;5099245;28;20036;-61
2024/01/21 05:09:12;;;;;;;4.75;0.85;;;6.60;99.90;;;;;;5112773;28;20055;-61
2024/01/21 05:11:39;;;;;;;1.30;1.00;;;6.60;99.90;;;;;;5095063;28;20044;-66
2024/01/21 05:14:07;;;;;;;3.35;0.85;;;6.60;99.90;;;;;;5091521;28;20049;-62
2024/01/21 05:16:39;;;;;;;2.45;0.77;;;6.60;99.90;;;;;;5073284;28;20479;-68
2024/01/21 05:19:06;;;;;;;5.35;1.30;;;6.60;99.90;;;;;;5094722;28;20102;-67
2024/01/21 05:21:34;;;;;;;6.03;1.65;;;6.60;99.90;;;;;;5095047;28;20044;-70
2024/01/21 05:24:02;;;;;;;4.43;1.23;;;6.50;99.90;;;;;;5094319;28;20048;-64
2024/01/21 05:26:42;;;;;;;3.38;1.10;;;6.50;99.90;;;;;;5094760;28;20044;-70
2024/01/21 05:29:10;;;;;;;1.98;1.10;;;6.50;99.90;;;;;;5094243;28;20051;-68
2024/01/21 05:31:38;;;;;;;1.50;0.82;;;6.50;99.90;;;;;;5095126;28;20044;-68
2024/01/21 05:34:05;;;;;;;5.10;1.13;;;6.50;99.90;;;;;;5092382;28;20054;-67
2024/01/21 05:36:33;;;;;;;3.25;0.93;;;6.50;99.90;;;;;;5097050;28;20036;-70
2024/01/21 05:39:00;;;;;;;4.13;1.00;;;6.50;99.90;;;;;;5115055;28;20047;-67
2024/01/21 05:41:28;;;;;;;1.65;0.82;;;6.50;99.90;;;;;;5101366;28;20048;-71
2024/01/21 05:43:56;;;;;;;1.35;0.90;;;6.50;99.90;;;;;;5094322;28;20052;-69
2024/01/21 05:46:23;;;;;;;2.35;0.90;;;6.50;99.90;;;;;;5093877;28;20044;-66
2024/01/21 05:48:51;;;;;;;4.20;1.13;;;6.50;99.90;;;;;;5072559;28;20405;-68
2024/01/21 05:51:19;;;;;;;2.67;1.00;;;6.50;99.90;;;;;;5085952;28;20055;-68
2024/01/21 05:53:46;;;;;;;3.70;1.10;;;6.40;99.90;;;;;;5091428;28;20052;-71
2024/01/21 05:56:18;;;;;;;1.58;1.02;;;6.40;99.90;;;;;;5091078;28;20048;-72
2024/01/21 05:58:45;;;;;;;3.58;0.70;;;6.40;99.90;;;;;;5088191;28;20052;-69
2024/01/21 06:01:13;;;;;;;3.42;0.90;;;6.50;99.90;;;;;;5090653;28;20044;-71
2024/01/21 06:03:41;;;;;;;3.70;1.15;;;6.50;99.90;;;;;;5071965;28;20484;-69
2024/01/21 06:06:08;;;;;;;6.45;1.10;;;6.60;99.90;;;;;;5087781;28;20051;-68
2024/01/21 06:08:36;;;;;;;7.43;1.27;;;6.60;99.90;;;;;;5095816;28;20051;-70
2024/01/21 06:11:04;;;;;;;3.92;1.52;;;6.70;99.90;;;;;;5086915;28;20056;-68
2024/01/21 06:13:31;;;;;;;3.17;1.20;;;6.70;99.90;;;;;;5085875;28;20067;-65
2024/01/21 06:16:01;;;;;;;3.33;1.10;;;6.70;99.90;;;;;;5088593;28;20059;-71
2024/01/21 06:18:29;;;;;;;2.80;1.00;;;6.70;99.90;;;;;;5081469;28;20059;-66
2024/01/21 06:20:57;;;;;;;4.57;1.20;;;6.70;99.90;;;;;;5069629;28;20492;-69
2024/01/21 06:23:24;;;;;;;8.30;1.65;;;6.70;99.90;;;;;;5091118;28;20047;-64
2024/01/21 06:25:52;;;;;;;7.00;1.08;;;6.70;99.90;;;;;;5087477;28;20044;-65
2024/01/21 06:28:20;;;;;;;5.53;1.05;;;6.70;99.90;;;;;;5088132;28;20048;-66
2024/01/21 06:30:47;;;;;;;6.82;1.83;;;6.70;99.90;;;;;;5083776;28;20041;-65
2024/01/21 06:33:15;;;;;;;8.02;1.17;;;6.70;99.90;;;;;;5078839;28;20052;-64
2024/01/21 06:35:43;;;;;;;6.53;1.30;;;6.70;99.90;;;;;;5086576;28;20539;-63
2024/01/21 06:38:11;;;;;;;10.18;1.30;;;6.80;99.90;;;;;;5092822;28;20067;-63
2024/01/21 06:40:39;;;;;;;6.30;1.00;;;6.80;99.90;;;;;;5086133;28;20064;-66
2024/01/21 06:43:06;;;;;;;7.90;1.02;;;6.80;99.90;;;;;;5091784;28;20059;-62
2024/01/21 06:45:35;;;;;;;3.85;0.88;;;6.90;99.90;;;;;;5083174;28;20044;-71
2024/01/21 06:48:03;;;;;;;5.68;1.25;;;7.00;99.90;;;;;;5083650;28;20041;-71
2024/01/21 06:50:31;;;;;;;7.20;1.15;;;7.00;99.90;;;;;;5070135;28;20048;-67
2024/01/21 06:52:58;;;;;;;5.85;1.23;;;7.10;99.90;;;;;;5085728;28;20048;-70
2024/01/21 06:55:26;;;;;;;6.97;1.02;;;7.10;99.90;;;;;;5089503;28;20055;-71
2024/01/21 06:57:53;;;;;;;5.55;1.42;;;7.10;99.90;;;;;;5089117;28;20052;-70
2024/01/21 07:00:21;;;;;;;6.53;1.00;;;7.10;99.90;;;;;;5077698;28;20526;-71
2024/01/21 07:02:49;;;;;;;11.98;1.77;;;7.10;99.90;;;;;;5070027;28;20047;-70
2024/01/21 07:05:17;;;;;;;7.93;1.20;;;7.10;99.90;;;;;;5081022;28;20064;-69
2024/01/21 07:07:45;;;;;;;8.55;1.30;;;7.10;99.90;;;;;;5100933;28;20055;-71
2024/01/21 07:10:16;;;;;;;8.70;1.33;;;7.20;99.90;;;;;;5109944;28;20039;-71
2024/01/21 07:12:44;;;;;;;9.15;1.33;;;7.20;99.90;;;;;;5096685;28;20044;-71
2024/01/21 07:15:12;;;;;;;7.57;1.75;;;7.30;99.90;;;;;;5089116;28;20040;-71
2024/01/21 07:17:40;;;;;;;12.70;2.83;;;7.30;99.90;;;;;;5080271;28;20392;-70
2024/01/21 07:20:11;;;;;;;16.17;1.20;;;7.40;99.90;;;;;;5072331;28;20053;-62
2024/01/21 07:22:39;;;;;;;9.85;1.42;;;7.40;99.90;;;;;;5082482;28;20478;-64
2024/01/21 07:25:07;;;;;;;8.75;0.90;;;7.50;99.90;;;;;;5080001;28;20503;-61
2024/01/21 07:27:35;;;;;;;8.40;1.17;;;7.60;99.90;;;;;;5079685;28;20058;-62
2024/01/21 07:30:03;;;;;;;10.40;1.45;;;7.60;99.90;;;;;;5084673;28;20052;-63
2024/01/21 07:32:31;;;;;;;16.92;1.45;;;7.70;99.90;;;;;;5059160;28;20586;-63
2024/01/21 07:34:59;;;;;;;9.13;1.25;;;7.70;99.90;;;;;;5067306;28;20056;-62
2024/01/21 07:37:27;;;;;;;7.57;1.27;;;7.70;99.90;;;;;;5087129;28;20047;-69
2024/01/21 07:39:54;;;;;;;11.80;1.50;;;7.70;99.90;;;;;;5088936;28;20044;-63
2024/01/21 07:42:22;;;;;;;7.13;1.15;;;7.60;99.90;;;;;;5085891;28;20048;-63
2024/01/21 07:44:49;;;;;;;15.82;1.45;;;7.60;99.90;;;;;;5085325;28;20538;-64
2024/01/21 07:47:18;;;;;;;16.67;2.72;;;7.60;99.90;;;;;;5087755;28;20051;-69
2024/01/21 07:49:46;;;;;;;14.70;2.95;;;7.60;99.90;;;;;;5082148;28;20047;-64
2024/01/21 07:52:16;;;;;;;9.60;1.30;;;7.60;99.90;;;;;;5082681;28;20056;-62
2024/01/21 07:54:47;;;;;;;15.95;1.70;;;7.60;99.90;;;;;;5107750;28;20070;-70
2024/01/21 07:57:14;;;;;;;8.32;1.45;;;7.60;99.90;;;;;;5107607;28;20043;-62
2024/01/21 07:59:43;;;;;;;13.45;1.50;;;7.60;99.90;;;;;;5087634;28;20484;-63
2024/01/21 08:02:11;;;;;;;17.35;2.75;;;7.60;99.90;;;;;;5082281;28;20118;-66
2024/01/21 08:04:38;;;;;;;11.15;1.48;;;7.60;99.90;;;;;;5071648;28;20040;-67
2024/01/21 08:07:06;;;;;;;13.95;1.73;;;7.60;99.90;;;;;;5082390;28;20054;-69
2024/01/21 08:09:34;;;;;;;10.15;1.70;;;7.60;99.90;;;;;;5088475;28;20631;-66
2024/01/21 08:12:02;;;;;;;11.93;1.83;;;7.60;99.90;;;;;;5088280;28;20044;-65
2024/01/21 08:14:31;;;;;;;15.20;1.80;;;7.70;99.90;;;;;;5088471;28;20047;-64
2024/01/21 08:16:59;;;;;;;17.17;1.77;;;7.60;99.90;;;;;;5088658;28;20047;-67
2024/01/21 08:19:28;;;;;;;16.02;1.75;;;7.60;99.90;;;;;;5073575;28;20051;-66
2024/01/21 08:21:56;;;;;;;13.93;1.88;;;7.60;99.90;;;;;;5069476;28;20044;-69
2024/01/21 08:24:23;;;;;;;13.02;1.90;;;7.60;99.90;;;;;;5088431;28;20044;-65
2024/01/21 08:26:51;;;;;;;10.35;1.60;;;7.70;99.90;;;;;;5087921;28;20044;-66
2024/01/21 08:29:19;;;;;;;11.88;1.80;;;7.70;99.90;;;;;;5088571;28;20048;-63
2024/01/21 08:31:47;;;;;;;16.33;1.95;;;7.70;99.90;;;;;;5087124;28;20051;-62
2024/01/21 08:34:14;;;;;;;13.32;1.50;;;7.70;99.90;;;;;;5074401;28;20496;-70
2024/01/21 08:36:42;;;;;;;18.63;1.85;;;7.70;99.90;;;;;;5076103;28;20047;-69
2024/01/21 08:39:10;;;;;;;15.25;2.03;;;7.80;99.90;;;;;;5090501;28;20059;-70
2024/01/21 08:41:38;;;;;;;24.00;2.47;;;7.80;99.90;;;;;;5088697;28;20040;-70
2024/01/21 08:44:06;;;;;;;10.32;1.40;;;7.80;99.90;;;;;;5077791;28;20048;-70
2024/01/21 08:46:34;;;;;;;12.90;1.30;;;7.90;99.90;;;;;;5082798;28;20484;-70
2024/01/21 08:49:02;;;;;;;19.52;2.15;;;7.90;99.90;;;;;;5084067;28;20052;-65
2024/01/21 08:51:30;;;;;;;22.05;3.15;;;7.90;99.90;;;;;;5083607;28;21031;-69
2024/01/21 08:54:00;;;;;;;12.50;1.50;;;8.00;99.90;;;;;;5086016;28;20080;-66
2024/01/21 08:56:28;;;;;;;22.08;2.38;;;8.00;99.90;;;;;;5088226;28;20048;-68
2024/01/21 08:58:56;;;;;;;16.00;1.85;;;8.00;99.90;;;;;;5087659;28;20051;-67
2024/01/21 09:01:23;;;;;;;15.10;2.33;;;8.10;99.90;;;;;;5087040;28;20044;-70
2024/01/21 09:03:51;;;;;;;11.55;2.00;;;8.10;99.90;;;;;;5084917;28;20052;-69
2024/01/21 09:06:19;;;;;;;12.75;1.10;;;8.10;99.90;;;;;;5068871;28;20040;-63
2024/01/21 09:08:51;;;;;;;11.80;1.73;;;8.10;99.90;;;;;;5089413;28;20044;-65
2024/01/21 09:11:25;;;;;;;16.50;1.92;;;8.10;99.90;;;;;;5072271;28;20043;-63
2024/01/21 09:13:53;;;;;;;17.63;2.03;;;8.20;99.90;;;;;;5097719;28;20043;-63
2024/01/21 09:16:20;;;;;;;14.90;3.08;;;8.30;99.90;;;;;;5108027;28;20051;-64
2024/01/21 09:18:48;;;;;;;11.93;1.65;;;8.30;99.90;;;;;;5086979;28;20040;-60
2024/01/21 09:21:16;;;;;;;11.63;2.22;;;8.40;99.90;;;;;;5067895;28;20041;-60
2024/01/21 09:23:56;;;;;;;12.07;1.65;;;8.40;99.90;;;;;;5091076;28;20051;-61
2024/01/21 09:26:25;;;;;;;6.65;1.25;;;8.50;99.90;;;;;;5079837;28;20044;-61
2024/01/21 09:28:53;;;;;;;14.75;2.30;;;8.50;99.90;;;;;;5082782;28;20036;-61
2024/01/21 09:31:21;;;;;;;11.68;1.48;;;8.60;99.90;;;;;;5088011;28;20075;-62
2024/01/21 09:33:49;;;;;;;15.80;2.28;;;8.70;99.90;;;;;;5084707;28;20052;-68
2024/01/21 09:36:17;;;;;;;9.32;2.10;;;8.70;99.90;;;;;;5087564;28;20055;-68
2024/01/21 09:38:45;;;;;;;7.00;1.90;;;8.80;99.90;;;;;;5095357;28;20487;-69
2024/01/21 09:41:57;;;;;;;16.52;1.85;;;8.90;99.90;;;;;;5084073;28;20051;-69
2024/01/21 09:44:27;;;;;;;14.07;2.38;;;8.90;99.90;;;;;;5058110;28;20057;-68
2024/01/21 09:46:57;;;;;;;21.00;2.20;;;9.00;99.90;;;;;;5074864;28;20048;-61
2024/01/21 09:49:25;;;;;;;10.40;1.60;;;9.00;99.90;;;;;;5077122;28;20047;-63
2024/01/21 09:51:54;;;;;;;19.88;2.78;;;9.10;99.90;;;;;;5070932;28;20051;-66
2024/01/21 09:54:24;;;;;;;14.50;2.13;;;9.10;99.90;;;;;;5090348;28;20044;-68
2024/01/21 09:56:52;;;;;;;9.98;2.05;;;9.20;99.90;;;;;;5089821;28;20040;-63
2024/01/21 09:59:20;;;;;;;14.85;1.95;;;9.10;99.90;;;;;;5090832;28;20051;-66
2024/01/21 10:01:48;;;;;;;19.25;2.28;;;9.10;99.90;;;;;;5084194;28;20419;-62
2024/01/21 10:04:17;;;;;;;14.93;2.28;;;9.20;99.90;;;;;;5081774;28;20036;-67
2024/01/21 10:06:46;;;;;;;23.20;3.67;;;9.20;99.90;;;;;;5085673;28;20054;-63
2024/01/21 10:09:21;;;;;;;21.00;3.28;;;9.10;99.90;;;;;;5092983;28;20530;-61
2024/01/21 10:11:57;;;;;;;20.58;2.13;;;9.10;99.90;;;;;;5090137;28;20048;-63
2024/01/21 10:14:28;;;;;;;17.23;2.40;;;9.20;99.90;;;;;;5106121;28;20486;-61
2024/01/21 10:16:56;;;;;;;24.00;2.80;;;9.20;99.90;;;;;;5097992;28;20400;-62
2024/01/21 10:19:26;;;;;;;19.13;2.42;;;9.20;99.90;;;;;;5087661;28;20056;-62
2024/01/21 10:22:16;;;;;;;20.70;2.60;;;9.30;99.90;;;;;;5069564;28;20506;-68
2024/01/21 10:24:49;;;;;;;23.05;3.33;;;9.20;99.90;;;;;;5108456;28;20052;-69
2024/01/21 10:27:17;;;;;;;41.53;3.88;;;9.30;99.90;;;;;;5107540;28;20051;-61
2024/01/21 10:29:46;;;;;;;19.90;2.65;;;9.30;99.90;;;;;;5073066;28;20059;-67
2024/01/21 10:32:15;;;;;;;19.17;2.88;;;9.40;99.90;;;;;;5087292;28;20419;-66
2024/01/21 10:34:51;;;;;;;18.45;2.65;;;9.40;99.90;;;;;;5084779;28;20036;-61
2024/01/21 10:37:20;;;;;;;29.13;2.85;;;9.40;99.90;;;;;;5084942;28;20048;-62
2024/01/21 10:39:49;;;;;;;20.20;2.95;;;9.50;99.90;;;;;;5088761;28;20040;-62
2024/01/21 10:42:17;;;;;;;31.80;3.13;;;9.60;99.90;;;;;;5090361;28;20043;-60
2024/01/21 10:44:46;;;;;;;22.55;2.17;;;9.70;99.90;;;;;;5090160;28;20288;-62
2024/01/21 10:47:16;;;;;;;17.30;2.45;;;9.70;99.90;;;;;;5089334;28;20044;-62
2024/01/21 10:49:45;;;;;;;22.73;3.40;;;9.80;99.90;;;;;;5084982;28;20056;-62
2024/01/21 10:52:16;;;;;;;18.58;2.38;;;9.80;99.90;;;;;;5082639;28;20398;-62
2024/01/21 10:54:46;;;;;;;23.73;2.58;;;9.90;99.90;;;;;;5081958;28;20043;-60
2024/01/21 10:57:13;;;;;;;18.95;3.30;;;9.90;99.90;;;;;;5089164;28;20048;-62
2024/01/21 10:59:42;;;;;;;22.83;2.22;;;9.90;99.90;;;;;;5086912;28;20379;-62
2024/01/21 11:02:10;;;;;;;29.10;3.92;;;10.00;99.90;;;;;;5080246;28;20651;-60
2024/01/21 11:04:39;;;;;;;17.70;2.20;;;10.00;99.90;;;;;;5084487;28;20055;-61
2024/01/21 11:07:11;;;;;;;16.95;2.53;;;10.10;99.90;;;;;;5096886;28;20055;-60
2024/01/21 11:09:40;;;;;;;13.18;3.38;;;10.10;99.90;;;;;;5084181;28;20036;-60
2024/01/21 11:12:08;;;;;;;13.47;1.90;;;10.10;99.90;;;;;;5085570;28;20040;-60
2024/01/21 11:14:37;;;;;;;14.73;3.28;;;10.10;99.90;;;;;;5089086;28;20064;-60
2024/01/21 11:17:14;;;;;;;13.70;2.07;;;10.10;99.90;;;;;;5088252;28;20048;-61
2024/01/21 11:19:47;;;;;;;15.05;2.13;;;10.10;99.90;;;;;;5087477;28;20040;-60
2024/01/21 11:22:17;;;;;;;18.58;2.22;;;10.20;99.90;;;;;;5082508;28;20050;-60
2024/01/21 11:24:45;;;;;;;17.20;2.47;;;10.10;99.90;;;;;;5088589;28;20047;-60
2024/01/21 11:27:15;;;;;;;16.02;3.55;;;10.20;99.90;;;;;;5083732;28;20048;-63
2024/01/21 11:29:43;;;;;;;14.07;2.55;;;10.20;99.90;;;;;;5108426;28;20051;-59
2024/01/21 11:32:11;;;;;;;22.02;2.50;;;10.30;99.90;;;;;;5103322;28;20468;-61
2024/01/21 11:34:41;;;;;;;25.60;3.53;;;10.40;99.90;;;;;;5102628;28;20051;-61
2024/01/21 11:37:13;;;;;;;13.93;2.63;;;10.50;99.90;;;;;;5083242;28;20050;-60
2024/01/21 11:39:43;;;;;;;22.10;3.70;;;10.60;99.90;;;;;;5089239;28;20044;-60
2024/01/21 11:42:11;;;;;;;14.77;2.85;;;10.60;99.90;;;;;;5087031;28;20049;-60
2024/01/21 11:44:39;;;;;;;21.17;3.25;;;10.70;99.90;;;;;;5088781;28;20047;-60
2024/01/21 11:47:08;;;;;;;21.38;2.95;;;10.80;99.90;;;;;;5089131;28;20040;-61
2024/01/21 11:49:36;;;;;;;22.17;2.95;;;10.90;99.90;;;;;;5079095;28;20059;-60
2024/01/21 11:52:07;;;;;;;24.08;3.63;;;10.90;99.90;;;;;;5084914;28;20396;-60
2024/01/21 11:54:36;;;;;;;22.15;3.53;;;11.00;99.90;;;;;;5088066;28;20044;-60
2024/01/21 11:57:07;;;;;;;19.02;2.63;;;11.00;99.90;;;;;;5088866;28;20044;-64
2024/01/21 11:59:35;;;;;;;22.15;2.47;;;11.00;99.90;;;;;;5093690;28;20060;-64
2024/01/21 12:02:07;;;;;;;24.75;2.90;;;10.90;99.90;;;;;;5068966;28;20052;-61
2024/01/21 12:04:37;;;;;;;23.88;5.07;;;10.90;99.90;;;;;;5085540;28;20044;-62
2024/01/21 12:07:06;;;;;;;21.98;3.40;;;10.80;99.90;;;;;;5075961;28;20044;-61
2024/01/21 12:09:34;;;;;;;19.45;2.80;;;10.80;99.90;;;;;;5071379;28;20044;-61
2024/01/21 12:12:07;;;;;;;18.15;3.83;;;10.80;99.90;;;;;;5083387;28;20060;-61
2024/01/21 12:14:36;;;;;;;24.15;3.58;;;10.80;99.90;;;;;;5083996;28;20048;-61
2024/01/21 12:17:04;;;;;;;19.10;3.17;;;10.80;99.90;;;;;;5086705;28;20052;-62
2024/01/21 12:19:32;;;;;;;25.67;3.13;;;10.80;99.90;;;;;;5088260;28;20047;-61
2024/01/21 12:22:00;;;;;;;22.58;2.70;;;10.90;99.90;;;;;;5071175;28;20052;-61
2024/01/21 12:24:28;;;;;;;22.40;2.78;;;10.90;99.90;;;;;;5078842;28;20060;-63
2024/01/21 12:26:56;;;;;;;18.88;3.05;;;11.00;99.90;;;;;;5076706;28;20051;-67
2024/01/21 12:29:24;;;;;;;18.08;2.88;;;11.00;99.90;;;;;;5084937;28;20044;-66
2024/01/21 12:31:53;;;;;;;19.90;2.90;;;11.10;99.90;;;;;;5053046;28;20056;-64
2024/01/21 12:34:20;;;;;;;23.17;4.15;;;11.20;99.90;;;;;;5087865;28;20059;-62
2024/01/21 12:36:52;;;;;;;20.17;3.10;;;11.40;99.90;;;;;;5077871;28;20518;-62
2024/01/21 12:39:23;;;;;;;20.08;3.60;;;11.50;99.90;;;;;;5076700;28;20059;-62
2024/01/21 12:41:51;;;;;;;25.40;4.07;;;11.50;99.90;;;;;;5071193;28;20049;-63
2024/01/21 12:44:19;;;;;;;27.92;3.45;;;11.60;99.90;;;;;;5092967;28;20506;-62
2024/01/21 12:46:47;;;;;;;20.35;3.83;;;11.70;99.90;;;;;;5084280;28;20040;-61
2024/01/21 12:49:15;;;;;;;20.05;3.35;;;11.70;99.90;;;;;;5081199;28;20052;-62
2024/01/21 12:51:45;;;;;;;13.35;2.78;;;11.70;99.90;;;;;;5073703;28;20040;-67
2024/01/21 12:54:14;;;;;;;20.48;2.97;;;11.70;99.90;;;;;;5086468;28;20047;-63
2024/01/21 12:56:41;;;;;;;24.95;3.42;;;11.60;99.90;;;;;;5078472;28;20052;-64